sensor_id;sensor_type;location;lat;lon;timestamp;temperature;humidity
49829;DHT22;35723;51.194;5.112;2022-10-31T00:02:10;15.80;99.90
49829;DHT22;35723;51.194;5.112;2022-10-31T00:04:36;15.90;99.90
49829;DHT22;35723;51.194;5.112;2022-10-31T00:07:02;15.80;99.90
49829;DHT22;35723;51.194;5.112;2022-10-31T00:09:27;15.80;99.90
49829;DHT22;35723;51.194;5.112;2022-10-31T00:11:53;15.80;99.90
49829;DHT22;35723;51.194;5.112;2022-10-31T00:14:18;15.80;99.90
49829;DHT22;35723;51.194;5.112;2022-10-31T00:16:44;15.80;99.90
49829;DHT22;35723;51.194;5.112;2022-10-31T00:19:10;15.80;99.90
49829;DHT22;35723;51.194;5.112;2022-10-31T00:21:35;15.80;99.90
49829;DHT22;35723;51.194;5.112;2022-10-31T00:24:01;15.90;99.90
49829;DHT22;35723;51.194;5.112;2022-10-31T00:26:31;15.90;99.90
49829;DHT22;35723;51.194;5.112;2022-10-31T00:28:57;15.90;99.90
49829;DHT22;35723;51.194;5.112;2022-10-31T00:31:23;15.80;99.90
49829;DHT22;35723;51.194;5.112;2022-10-31T00:33:49;15.80;99.90
49829;DHT22;35723;51.194;5.112;2022-10-31T00:36:17;15.80;99.90
49829;DHT22;35723;51.194;5.112;2022-10-31T00:38:43;15.80;99.90
49829;DHT22;35723;51.194;5.112;2022-10-31T00:41:11;15.80;99.90
49829;DHT22;35723;51.194;5.112;2022-10-31T00:43:36;15.80;99.90
49829;DHT22;35723;51.194;5.112;2022-10-31T00:46:02;15.80;99.90
49829;DHT22;35723;51.194;5.112;2022-10-31T00:48:28;15.80;99.90
49829;DHT22;35723;51.194;5.112;2022-10-31T00:50:54;15.80;99.90
49829;DHT22;35723;51.194;5.112;2022-10-31T00:53:20;15.80;99.90
49829;DHT22;35723;51.194;5.112;2022-10-31T00:55:46;15.70;99.90
49829;DHT22;35723;51.194;5.112;2022-10-31T00:58:12;15.70;99.90
49829;DHT22;35723;51.194;5.112;2022-10-31T01:00:38;15.70;99.90
49829;DHT22;35723;51.194;5.112;2022-10-31T01:03:03;15.70;99.90
49829;DHT22;35723;51.194;5.112;2022-10-31T01:05:29;15.60;99.90
49829;DHT22;35723;51.194;5.112;2022-10-31T01:07:55;15.60;99.90
49829;DHT22;35723;51.194;5.112;2022-10-31T01:10:20;15.60;99.90
49829;DHT22;35723;51.194;5.112;2022-10-31T01:12:47;15.60;99.90
49829;DHT22;35723;51.194;5.112;2022-10-31T01:15:19;15.60;99.90
49829;DHT22;35723;51.194;5.112;2022-10-31T01:17:45;15.60;99.90
49829;DHT22;35723;51.194;5.112;2022-10-31T01:20:12;15.50;99.90
49829;DHT22;35723;51.194;5.112;2022-10-31T01:22:38;15.50;99.90
49829;DHT22;35723;51.194;5.112;2022-10-31T01:25:05;15.50;99.90
49829;DHT22;35723;51.194;5.112;2022-10-31T01:27:31;15.50;99.90
49829;DHT22;35723;51.194;5.112;2022-10-31T01:29:57;15.50;99.90
49829;DHT22;35723;51.194;5.112;2022-10-31T01:32:23;15.40;99.90
49829;DHT22;35723;51.194;5.112;2022-10-31T01:34:48;15.40;99.90
49829;DHT22;35723;51.194;5.112;2022-10-31T01:37:14;15.40;99.90
49829;DHT22;35723;51.194;5.112;2022-10-31T01:39:40;15.30;99.90
49829;DHT22;35723;51.194;5.112;2022-10-31T01:42:05;15.30;99.90
49829;DHT22;35723;51.194;5.112;2022-10-31T01:47:00;15.10;99.90
49829;DHT22;35723;51.194;5.112;2022-10-31T01:49:54;15.10;99.90
49829;DHT22;35723;51.194;5.112;2022-10-31T01:52:37;15.10;99.90
49829;DHT22;35723;51.194;5.112;2022-10-31T01:57:39;15.10;99.90
49829;DHT22;35723;51.194;5.112;2022-10-31T02:00:08;15.10;99.90
49829;DHT22;35723;51.194;5.112;2022-10-31T02:02:35;15.10;99.90
49829;DHT22;35723;51.194;5.112;2022-10-31T02:05:05;15.10;99.90
49829;DHT22;35723;51.194;5.112;2022-10-31T02:07:39;15.10;99.90
49829;DHT22;35723;51.194;5.112;2022-10-31T02:10:08;15.10;99.90
49829;DHT22;35723;51.194;5.112;2022-10-31T02:12:34;15.00;99.90
49829;DHT22;35723;51.194;5.112;2022-10-31T02:15:02;15.00;99.90
49829;DHT22;35723;51.194;5.112;2022-10-31T02:17:29;15.00;99.90
49829;DHT22;35723;51.194;5.112;2022-10-31T02:36:54;14.80;99.90
49829;DHT22;35723;51.194;5.112;2022-10-31T02:39:25;14.80;99.90
49829;DHT22;35723;51.194;5.112;2022-10-31T02:42:16;14.80;99.90
49829;DHT22;35723;51.194;5.112;2022-10-31T02:47:34;14.80;99.90
49829;DHT22;35723;51.194;5.112;2022-10-31T02:50:18;14.80;99.90
49829;DHT22;35723;51.194;5.112;2022-10-31T02:52:49;14.80;99.90
49829;DHT22;35723;51.194;5.112;2022-10-31T02:58:08;14.90;99.90
49829;DHT22;35723;51.194;5.112;2022-10-31T03:00:52;14.80;99.90
49829;DHT22;35723;51.194;5.112;2022-10-31T03:03:36;14.80;99.90
49829;DHT22;35723;51.194;5.112;2022-10-31T03:09:30;14.70;99.90
49829;DHT22;35723;51.194;5.112;2022-10-31T03:14:34;14.60;99.90
49829;DHT22;35723;51.194;5.112;2022-10-31T03:17:05;14.60;99.90
49829;DHT22;35723;51.194;5.112;2022-10-31T03:19:40;14.50;99.90
49829;DHT22;35723;51.194;5.112;2022-10-31T03:22:22;14.50;99.90
49829;DHT22;35723;51.194;5.112;2022-10-31T03:24:49;14.50;99.90
49829;DHT22;35723;51.194;5.112;2022-10-31T03:27:18;14.50;99.90
49829;DHT22;35723;51.194;5.112;2022-10-31T03:29:46;14.50;99.90
49829;DHT22;35723;51.194;5.112;2022-10-31T03:32:21;14.50;99.90
49829;DHT22;35723;51.194;5.112;2022-10-31T03:34:50;14.50;99.90
49829;DHT22;35723;51.194;5.112;2022-10-31T03:37:19;14.50;99.90
49829;DHT22;35723;51.194;5.112;2022-10-31T03:39:47;14.50;99.90
49829;DHT22;35723;51.194;5.112;2022-10-31T03:42:22;14.50;99.90
49829;DHT22;35723;51.194;5.112;2022-10-31T03:44:57;14.50;99.90
49829;DHT22;35723;51.194;5.112;2022-10-31T03:47:25;14.50;99.90
49829;DHT22;35723;51.194;5.112;2022-10-31T03:49:51;14.50;99.90
49829;DHT22;35723;51.194;5.112;2022-10-31T03:55:09;14.40;99.90
49829;DHT22;35723;51.194;5.112;2022-10-31T03:57:52;14.40;99.90
49829;DHT22;35723;51.194;5.112;2022-10-31T04:00:19;14.30;99.90
49829;DHT22;35723;51.194;5.112;2022-10-31T04:02:55;14.30;99.90
49829;DHT22;35723;51.194;5.112;2022-10-31T04:05:24;14.30;99.90
49829;DHT22;35723;51.194;5.112;2022-10-31T04:07:53;14.30;99.90
49829;DHT22;35723;51.194;5.112;2022-10-31T04:10:21;14.30;99.90
49829;DHT22;35723;51.194;5.112;2022-10-31T04:12:52;14.40;99.90
49829;DHT22;35723;51.194;5.112;2022-10-31T04:15:19;14.30;99.90
49829;DHT22;35723;51.194;5.112;2022-10-31T04:17:47;14.30;99.90
49829;DHT22;35723;51.194;5.112;2022-10-31T04:20:16;14.30;99.90
49829;DHT22;35723;51.194;5.112;2022-10-31T04:22:42;14.30;99.90
49829;DHT22;35723;51.194;5.112;2022-10-31T04:25:08;14.30;99.90
49829;DHT22;35723;51.194;5.112;2022-10-31T04:27:33;14.30;99.90
49829;DHT22;35723;51.194;5.112;2022-10-31T04:29:59;14.30;99.90
49829;DHT22;35723;51.194;5.112;2022-10-31T04:32:25;14.30;99.90
49829;DHT22;35723;51.194;5.112;2022-10-31T04:34:51;14.30;99.90
49829;DHT22;35723;51.194;5.112;2022-10-31T04:37:17;14.30;99.90
49829;DHT22;35723;51.194;5.112;2022-10-31T04:39:42;14.40;99.90
49829;DHT22;35723;51.194;5.112;2022-10-31T04:42:08;14.30;99.90
49829;DHT22;35723;51.194;5.112;2022-10-31T04:44:33;14.40;99.90
49829;DHT22;35723;51.194;5.112;2022-10-31T04:46:59;14.40;99.90
49829;DHT22;35723;51.194;5.112;2022-10-31T04:49:25;14.40;99.90
49829;DHT22;35723;51.194;5.112;2022-10-31T04:51:50;14.40;99.90
49829;DHT22;35723;51.194;5.112;2022-10-31T04:54:16;14.40;99.90
49829;DHT22;35723;51.194;5.112;2022-10-31T04:56:41;14.40;99.90
49829;DHT22;35723;51.194;5.112;2022-10-31T04:59:07;14.40;99.90
49829;DHT22;35723;51.194;5.112;2022-10-31T05:01:32;14.30;99.90
49829;DHT22;35723;51.194;5.112;2022-10-31T05:03:58;14.30;99.90
49829;DHT22;35723;51.194;5.112;2022-10-31T05:06:24;14.30;99.90
49829;DHT22;35723;51.194;5.112;2022-10-31T05:08:49;14.30;99.90
49829;DHT22;35723;51.194;5.112;2022-10-31T05:11:15;14.30;99.90
49829;DHT22;35723;51.194;5.112;2022-10-31T05:13:41;14.30;99.90
49829;DHT22;35723;51.194;5.112;2022-10-31T05:16:07;14.20;99.90
49829;DHT22;35723;51.194;5.112;2022-10-31T05:18:32;14.30;99.90
49829;DHT22;35723;51.194;5.112;2022-10-31T05:20:58;14.20;99.90
49829;DHT22;35723;51.194;5.112;2022-10-31T05:23:24;14.20;99.90
49829;DHT22;35723;51.194;5.112;2022-10-31T05:25:49;14.20;99.90
49829;DHT22;35723;51.194;5.112;2022-10-31T05:28:15;14.30;99.90
49829;DHT22;35723;51.194;5.112;2022-10-31T05:30:40;14.20;99.90
49829;DHT22;35723;51.194;5.112;2022-10-31T05:33:06;14.20;99.90
49829;DHT22;35723;51.194;5.112;2022-10-31T05:35:32;14.30;99.90
49829;DHT22;35723;51.194;5.112;2022-10-31T05:37:58;14.30;99.90
49829;DHT22;35723;51.194;5.112;2022-10-31T05:40:26;14.30;99.90
49829;DHT22;35723;51.194;5.112;2022-10-31T05:42:53;14.30;99.90
49829;DHT22;35723;51.194;5.112;2022-10-31T05:45:20;14.30;99.90
49829;DHT22;35723;51.194;5.112;2022-10-31T05:47:56;14.30;99.90
49829;DHT22;35723;51.194;5.112;2022-10-31T05:50:23;14.30;99.90
49829;DHT22;35723;51.194;5.112;2022-10-31T05:53:03;14.30;99.90
49829;DHT22;35723;51.194;5.112;2022-10-31T05:55:31;14.30;99.90
49829;DHT22;35723;51.194;5.112;2022-10-31T05:57:56;14.30;99.90
49829;DHT22;35723;51.194;5.112;2022-10-31T06:00:23;14.30;99.90
49829;DHT22;35723;51.194;5.112;2022-10-31T06:02:49;14.30;99.90
49829;DHT22;35723;51.194;5.112;2022-10-31T06:05:15;14.30;99.90
49829;DHT22;35723;51.194;5.112;2022-10-31T06:07:42;14.20;99.90
49829;DHT22;35723;51.194;5.112;2022-10-31T06:10:08;14.20;99.90
49829;DHT22;35723;51.194;5.112;2022-10-31T06:12:35;14.30;99.90
49829;DHT22;35723;51.194;5.112;2022-10-31T06:15:06;14.30;99.90
49829;DHT22;35723;51.194;5.112;2022-10-31T06:17:33;14.30;99.90
49829;DHT22;35723;51.194;5.112;2022-10-31T06:19:59;14.30;99.90
49829;DHT22;35723;51.194;5.112;2022-10-31T06:22:25;14.30;99.90
49829;DHT22;35723;51.194;5.112;2022-10-31T06:24:51;14.30;99.90
49829;DHT22;35723;51.194;5.112;2022-10-31T06:27:16;14.30;99.90
49829;DHT22;35723;51.194;5.112;2022-10-31T06:29:42;14.30;99.90
49829;DHT22;35723;51.194;5.112;2022-10-31T06:32:10;14.30;99.90
49829;DHT22;35723;51.194;5.112;2022-10-31T06:34:36;14.30;99.90
49829;DHT22;35723;51.194;5.112;2022-10-31T06:37:02;14.30;99.90
49829;DHT22;35723;51.194;5.112;2022-10-31T06:39:27;14.20;99.90
49829;DHT22;35723;51.194;5.112;2022-10-31T06:41:53;14.30;99.90
49829;DHT22;35723;51.194;5.112;2022-10-31T06:44:19;14.30;99.90
49829;DHT22;35723;51.194;5.112;2022-10-31T06:46:46;14.30;99.90
49829;DHT22;35723;51.194;5.112;2022-10-31T06:49:12;14.30;99.90
49829;DHT22;35723;51.194;5.112;2022-10-31T06:51:38;14.20;99.90
49829;DHT22;35723;51.194;5.112;2022-10-31T06:54:04;14.20;99.90
49829;DHT22;35723;51.194;5.112;2022-10-31T06:56:29;14.20;99.90
49829;DHT22;35723;51.194;5.112;2022-10-31T06:58:55;14.20;99.90
49829;DHT22;35723;51.194;5.112;2022-10-31T07:01:21;14.20;99.90
49829;DHT22;35723;51.194;5.112;2022-10-31T07:03:46;14.20;99.90
49829;DHT22;35723;51.194;5.112;2022-10-31T07:06:12;14.20;99.90
49829;DHT22;35723;51.194;5.112;2022-10-31T07:08:37;14.30;99.90
49829;DHT22;35723;51.194;5.112;2022-10-31T07:11:03;14.20;99.90
49829;DHT22;35723;51.194;5.112;2022-10-31T07:13:29;14.20;99.90
49829;DHT22;35723;51.194;5.112;2022-10-31T07:16:00;14.20;99.90
49829;DHT22;35723;51.194;5.112;2022-10-31T07:18:26;14.20;99.90
49829;DHT22;35723;51.194;5.112;2022-10-31T07:20:52;14.20;99.90
49829;DHT22;35723;51.194;5.112;2022-10-31T07:23:19;14.20;99.90
49829;DHT22;35723;51.194;5.112;2022-10-31T07:25:44;14.20;99.90
49829;DHT22;35723;51.194;5.112;2022-10-31T07:28:10;14.30;99.90
49829;DHT22;35723;51.194;5.112;2022-10-31T07:30:37;14.30;99.90
49829;DHT22;35723;51.194;5.112;2022-10-31T07:33:03;14.20;99.90
49829;DHT22;35723;51.194;5.112;2022-10-31T07:35:29;14.20;99.90
49829;DHT22;35723;51.194;5.112;2022-10-31T07:37:55;14.30;99.90
49829;DHT22;35723;51.194;5.112;2022-10-31T07:40:22;14.30;99.90
49829;DHT22;35723;51.194;5.112;2022-10-31T07:42:50;14.40;99.90
49829;DHT22;35723;51.194;5.112;2022-10-31T07:45:20;14.40;99.90
49829;DHT22;35723;51.194;5.112;2022-10-31T07:47:51;14.40;99.90
49829;DHT22;35723;51.194;5.112;2022-10-31T07:50:20;14.40;99.90
49829;DHT22;35723;51.194;5.112;2022-10-31T07:52:46;14.50;99.90
49829;DHT22;35723;51.194;5.112;2022-10-31T07:55:13;14.50;99.90
49829;DHT22;35723;51.194;5.112;2022-10-31T07:57:39;14.60;99.90
49829;DHT22;35723;51.194;5.112;2022-10-31T08:00:06;14.70;99.90
49829;DHT22;35723;51.194;5.112;2022-10-31T08:02:32;14.70;99.90
49829;DHT22;35723;51.194;5.112;2022-10-31T08:04:58;14.80;99.90
49829;DHT22;35723;51.194;5.112;2022-10-31T08:07:25;14.80;99.90
49829;DHT22;35723;51.194;5.112;2022-10-31T08:09:51;14.90;99.90
49829;DHT22;35723;51.194;5.112;2022-10-31T08:12:17;14.90;99.90
49829;DHT22;35723;51.194;5.112;2022-10-31T08:14:43;14.90;99.90
49829;DHT22;35723;51.194;5.112;2022-10-31T08:17:10;15.00;99.90
49829;DHT22;35723;51.194;5.112;2022-10-31T08:19:36;15.00;99.90
49829;DHT22;35723;51.194;5.112;2022-10-31T08:22:01;15.10;99.90
49829;DHT22;35723;51.194;5.112;2022-10-31T08:24:27;15.00;99.90
49829;DHT22;35723;51.194;5.112;2022-10-31T08:26:53;15.10;99.90
49829;DHT22;35723;51.194;5.112;2022-10-31T08:29:18;15.10;99.90
49829;DHT22;35723;51.194;5.112;2022-10-31T08:31:44;15.20;99.90
49829;DHT22;35723;51.194;5.112;2022-10-31T08:34:10;15.20;99.90
49829;DHT22;35723;51.194;5.112;2022-10-31T08:36:35;15.20;99.90
49829;DHT22;35723;51.194;5.112;2022-10-31T08:39:02;15.30;99.90
49829;DHT22;35723;51.194;5.112;2022-10-31T08:41:28;15.30;99.90
49829;DHT22;35723;51.194;5.112;2022-10-31T08:43:53;15.30;99.90
49829;DHT22;35723;51.194;5.112;2022-10-31T08:46:19;15.40;99.90
49829;DHT22;35723;51.194;5.112;2022-10-31T08:48:47;15.40;99.90
49829;DHT22;35723;51.194;5.112;2022-10-31T08:51:13;15.40;99.90
49829;DHT22;35723;51.194;5.112;2022-10-31T08:53:39;15.40;99.90
49829;DHT22;35723;51.194;5.112;2022-10-31T08:56:04;15.40;99.90
49829;DHT22;35723;51.194;5.112;2022-10-31T08:58:30;15.50;99.90
49829;DHT22;35723;51.194;5.112;2022-10-31T09:00:58;15.50;99.90
49829;DHT22;35723;51.194;5.112;2022-10-31T09:03:26;15.60;99.90
49829;DHT22;35723;51.194;5.112;2022-10-31T09:06:00;15.60;99.90
49829;DHT22;35723;51.194;5.112;2022-10-31T09:08:30;15.70;99.90
49829;DHT22;35723;51.194;5.112;2022-10-31T09:10:57;15.60;99.90
49829;DHT22;35723;51.194;5.112;2022-10-31T09:13:23;15.70;99.90
49829;DHT22;35723;51.194;5.112;2022-10-31T09:15:49;15.70;99.90
49829;DHT22;35723;51.194;5.112;2022-10-31T09:18:17;15.70;99.90
49829;DHT22;35723;51.194;5.112;2022-10-31T09:20:45;15.80;99.90
49829;DHT22;35723;51.194;5.112;2022-10-31T09:23:21;15.80;99.90
49829;DHT22;35723;51.194;5.112;2022-10-31T09:25:48;15.90;99.90
49829;DHT22;35723;51.194;5.112;2022-10-31T09:28:16;15.90;99.90
49829;DHT22;35723;51.194;5.112;2022-10-31T09:30:45;15.90;99.90
49829;DHT22;35723;51.194;5.112;2022-10-31T09:33:12;16.00;99.90
49829;DHT22;35723;51.194;5.112;2022-10-31T09:35:38;16.00;99.90
49829;DHT22;35723;51.194;5.112;2022-10-31T09:38:12;16.10;99.90
49829;DHT22;35723;51.194;5.112;2022-10-31T09:40:43;16.10;99.90
49829;DHT22;35723;51.194;5.112;2022-10-31T09:43:22;16.20;99.90
49829;DHT22;35723;51.194;5.112;2022-10-31T09:46:01;16.30;99.90
49829;DHT22;35723;51.194;5.112;2022-10-31T09:51:16;16.60;99.90
49829;DHT22;35723;51.194;5.112;2022-10-31T09:56:37;16.90;99.90
49829;DHT22;35723;51.194;5.112;2022-10-31T09:59:05;17.00;99.90
49829;DHT22;35723;51.194;5.112;2022-10-31T10:01:56;17.10;99.90
49829;DHT22;35723;51.194;5.112;2022-10-31T10:04:51;17.00;99.90
49829;DHT22;35723;51.194;5.112;2022-10-31T10:10:30;17.10;99.90
49829;DHT22;35723;51.194;5.112;2022-10-31T10:29:53;17.10;99.90
49829;DHT22;35723;51.194;5.112;2022-10-31T10:32:26;17.10;99.90
49829;DHT22;35723;51.194;5.112;2022-10-31T10:34:57;17.10;99.90
49829;DHT22;35723;51.194;5.112;2022-10-31T10:37:31;17.10;99.90
49829;DHT22;35723;51.194;5.112;2022-10-31T10:42:37;17.20;99.90
49829;DHT22;35723;51.194;5.112;2022-10-31T10:45:38;17.20;99.90
49829;DHT22;35723;51.194;5.112;2022-10-31T10:48:44;17.20;99.90
49829;DHT22;35723;51.194;5.112;2022-10-31T10:51:43;17.20;99.90
49829;DHT22;35723;51.194;5.112;2022-10-31T10:57:15;17.20;99.90
49829;DHT22;35723;51.194;5.112;2022-10-31T10:59:45;17.20;99.90
49829;DHT22;35723;51.194;5.112;2022-10-31T11:02:31;17.20;99.90
49829;DHT22;35723;51.194;5.112;2022-10-31T11:04:59;17.30;99.90
49829;DHT22;35723;51.194;5.112;2022-10-31T11:07:37;17.30;99.90
49829;DHT22;35723;51.194;5.112;2022-10-31T11:10:04;17.40;99.90
49829;DHT22;35723;51.194;5.112;2022-10-31T11:12:32;17.50;99.90
49829;DHT22;35723;51.194;5.112;2022-10-31T11:15:02;17.50;99.90
49829;DHT22;35723;51.194;5.112;2022-10-31T11:17:36;17.50;99.90
49829;DHT22;35723;51.194;5.112;2022-10-31T11:20:06;17.50;99.90
49829;DHT22;35723;51.194;5.112;2022-10-31T11:22:47;17.60;99.90
49829;DHT22;35723;51.194;5.112;2022-10-31T11:25:20;17.60;99.90
49829;DHT22;35723;51.194;5.112;2022-10-31T11:27:47;17.70;99.90
49829;DHT22;35723;51.194;5.112;2022-10-31T11:30:23;17.80;99.90
49829;DHT22;35723;51.194;5.112;2022-10-31T11:32:50;17.80;99.90
49829;DHT22;35723;51.194;5.112;2022-10-31T11:35:22;17.90;99.90
49829;DHT22;35723;51.194;5.112;2022-10-31T11:37:51;18.00;99.90
49829;DHT22;35723;51.194;5.112;2022-10-31T11:40:21;18.00;99.90
49829;DHT22;35723;51.194;5.112;2022-10-31T11:42:50;18.00;99.90
49829;DHT22;35723;51.194;5.112;2022-10-31T11:47:50;18.10;99.90
49829;DHT22;35723;51.194;5.112;2022-10-31T11:50:26;18.10;99.90
49829;DHT22;35723;51.194;5.112;2022-10-31T11:52:53;18.20;99.90
49829;DHT22;35723;51.194;5.112;2022-10-31T11:55:37;18.20;99.90
49829;DHT22;35723;51.194;5.112;2022-10-31T11:58:03;18.20;99.90
49829;DHT22;35723;51.194;5.112;2022-10-31T12:00:39;18.20;99.90
49829;DHT22;35723;51.194;5.112;2022-10-31T12:05:52;18.30;99.90
49829;DHT22;35723;51.194;5.112;2022-10-31T12:08:19;18.40;99.90
49829;DHT22;35723;51.194;5.112;2022-10-31T12:14:35;18.50;99.90
49829;DHT22;35723;51.194;5.112;2022-10-31T12:19:33;18.50;99.90
49829;DHT22;35723;51.194;5.112;2022-10-31T12:25:28;18.70;99.90
49829;DHT22;35723;51.194;5.112;2022-10-31T12:38:42;19.10;99.90
49829;DHT22;35723;51.194;5.112;2022-10-31T12:44:21;19.20;99.90
49829;DHT22;35723;51.194;5.112;2022-10-31T12:57:29;19.30;99.90
49829;DHT22;35723;51.194;5.112;2022-10-31T13:00:12;19.30;99.90
49829;DHT22;35723;51.194;5.112;2022-10-31T13:03:19;19.40;99.90
49829;DHT22;35723;51.194;5.112;2022-10-31T13:05:53;19.50;99.90
49829;DHT22;35723;51.194;5.112;2022-10-31T13:08:20;19.40;99.90
49829;DHT22;35723;51.194;5.112;2022-10-31T13:10:55;19.50;99.90
49829;DHT22;35723;51.194;5.112;2022-10-31T13:13:25;19.60;99.90
49829;DHT22;35723;51.194;5.112;2022-10-31T13:16:07;19.60;99.90
49829;DHT22;35723;51.194;5.112;2022-10-31T13:21:40;19.70;99.90
49829;DHT22;35723;51.194;5.112;2022-10-31T13:24:13;19.70;99.90
49829;DHT22;35723;51.194;5.112;2022-10-31T13:26:51;19.70;99.90
49829;DHT22;35723;51.194;5.112;2022-10-31T13:29:23;19.80;99.90
49829;DHT22;35723;51.194;5.112;2022-10-31T13:31:50;19.70;99.90
49829;DHT22;35723;51.194;5.112;2022-10-31T13:34:43;19.70;99.90
49829;DHT22;35723;51.194;5.112;2022-10-31T13:45:30;19.90;99.90
49829;DHT22;35723;51.194;5.112;2022-10-31T13:48:00;19.80;99.90
49829;DHT22;35723;51.194;5.112;2022-10-31T13:50:29;19.90;99.90
49829;DHT22;35723;51.194;5.112;2022-10-31T13:55:43;19.80;99.90
49829;DHT22;35723;51.194;5.112;2022-10-31T13:58:29;19.80;99.90
49829;DHT22;35723;51.194;5.112;2022-10-31T14:03:25;19.90;99.90
49829;DHT22;35723;51.194;5.112;2022-10-31T14:05:54;19.80;99.90
49829;DHT22;35723;51.194;5.112;2022-10-31T14:08:22;19.80;99.90
49829;DHT22;35723;51.194;5.112;2022-10-31T14:10:50;19.70;99.90
49829;DHT22;35723;51.194;5.112;2022-10-31T14:13:38;19.70;99.90
49829;DHT22;35723;51.194;5.112;2022-10-31T14:16:22;19.70;99.90
49829;DHT22;35723;51.194;5.112;2022-10-31T14:18:56;19.70;99.90
49829;DHT22;35723;51.194;5.112;2022-10-31T14:23:51;19.80;99.90
49829;DHT22;35723;51.194;5.112;2022-10-31T14:28:44;19.80;99.90
49829;DHT22;35723;51.194;5.112;2022-10-31T14:31:36;19.80;99.90
49829;DHT22;35723;51.194;5.112;2022-10-31T14:37:03;19.70;99.90
49829;DHT22;35723;51.194;5.112;2022-10-31T14:51:31;19.60;99.90
49829;DHT22;35723;51.194;5.112;2022-10-31T14:53:55;19.60;99.90
49829;DHT22;35723;51.194;5.112;2022-10-31T14:56:29;19.40;99.90
49829;DHT22;35723;51.194;5.112;2022-10-31T14:58:59;19.40;99.90
49829;DHT22;35723;51.194;5.112;2022-10-31T15:01:28;19.40;99.90
49829;DHT22;35723;51.194;5.112;2022-10-31T15:04:17;19.40;99.90
49829;DHT22;35723;51.194;5.112;2022-10-31T15:07:30;19.30;99.90
49829;DHT22;35723;51.194;5.112;2022-10-31T15:09:34;19.30;99.90
49829;DHT22;35723;51.194;5.112;2022-10-31T15:12:01;19.20;99.90
49829;DHT22;35723;51.194;5.112;2022-10-31T15:14:41;19.20;99.90
49829;DHT22;35723;51.194;5.112;2022-10-31T15:17:11;19.20;99.90
49829;DHT22;35723;51.194;5.112;2022-10-31T15:19:37;19.20;99.90
49829;DHT22;35723;51.194;5.112;2022-10-31T15:22:07;19.20;99.90
49829;DHT22;35723;51.194;5.112;2022-10-31T15:24:37;19.20;99.90
49829;DHT22;35723;51.194;5.112;2022-10-31T15:27:04;19.20;99.90
49829;DHT22;35723;51.194;5.112;2022-10-31T15:29:30;19.10;99.90
49829;DHT22;35723;51.194;5.112;2022-10-31T15:31:58;19.10;99.90
49829;DHT22;35723;51.194;5.112;2022-10-31T15:34:38;19.10;99.90
49829;DHT22;35723;51.194;5.112;2022-10-31T15:37:04;19.10;99.90
49829;DHT22;35723;51.194;5.112;2022-10-31T15:39:34;19.00;99.90
49829;DHT22;35723;51.194;5.112;2022-10-31T15:41:59;19.00;99.90
49829;DHT22;35723;51.194;5.112;2022-10-31T15:44:31;19.00;99.90
49829;DHT22;35723;51.194;5.112;2022-10-31T15:47:03;18.90;99.90
49829;DHT22;35723;51.194;5.112;2022-10-31T15:49:41;18.90;99.90
49829;DHT22;35723;51.194;5.112;2022-10-31T15:52:13;18.90;99.90
49829;DHT22;35723;51.194;5.112;2022-10-31T15:54:50;18.80;99.90
49829;DHT22;35723;51.194;5.112;2022-10-31T15:57:17;18.80;99.90
49829;DHT22;35723;51.194;5.112;2022-10-31T15:59:46;18.80;99.90
49829;DHT22;35723;51.194;5.112;2022-10-31T16:02:14;18.80;99.90
49829;DHT22;35723;51.194;5.112;2022-10-31T16:04:57;18.70;99.90
49829;DHT22;35723;51.194;5.112;2022-10-31T16:07:24;18.60;99.90
49829;DHT22;35723;51.194;5.112;2022-10-31T16:09:59;18.60;99.90
49829;DHT22;35723;51.194;5.112;2022-10-31T16:12:44;18.60;99.90
49829;DHT22;35723;51.194;5.112;2022-10-31T16:15:15;18.50;99.90
49829;DHT22;35723;51.194;5.112;2022-10-31T16:17:44;18.50;99.90
49829;DHT22;35723;51.194;5.112;2022-10-31T16:20:37;18.50;99.90
49829;DHT22;35723;51.194;5.112;2022-10-31T16:23:03;18.50;99.90
49829;DHT22;35723;51.194;5.112;2022-10-31T16:25:37;18.50;99.90
49829;DHT22;35723;51.194;5.112;2022-10-31T16:28:18;18.40;99.90
49829;DHT22;35723;51.194;5.112;2022-10-31T16:30:46;18.40;99.90
49829;DHT22;35723;51.194;5.112;2022-10-31T16:36:28;18.40;99.90
49829;DHT22;35723;51.194;5.112;2022-10-31T16:38:46;18.30;99.90
49829;DHT22;35723;51.194;5.112;2022-10-31T16:41:12;18.40;99.90
49829;DHT22;35723;51.194;5.112;2022-10-31T16:43:38;18.30;99.90
49829;DHT22;35723;51.194;5.112;2022-10-31T16:46:03;18.40;99.90
49829;DHT22;35723;51.194;5.112;2022-10-31T16:48:29;18.30;99.90
49829;DHT22;35723;51.194;5.112;2022-10-31T16:50:55;18.30;99.90
49829;DHT22;35723;51.194;5.112;2022-10-31T16:53:20;18.30;99.90
49829;DHT22;35723;51.194;5.112;2022-10-31T16:58:39;18.30;99.90
49829;DHT22;35723;51.194;5.112;2022-10-31T17:01:06;18.20;99.90
49829;DHT22;35723;51.194;5.112;2022-10-31T17:03:32;18.20;99.90
49829;DHT22;35723;51.194;5.112;2022-10-31T17:05:57;18.20;99.90
49829;DHT22;35723;51.194;5.112;2022-10-31T17:08:23;18.10;99.90
49829;DHT22;35723;51.194;5.112;2022-10-31T17:10:54;18.10;99.90
49829;DHT22;35723;51.194;5.112;2022-10-31T17:13:27;18.00;99.90
49829;DHT22;35723;51.194;5.112;2022-10-31T17:15:56;18.00;99.90
49829;DHT22;35723;51.194;5.112;2022-10-31T17:18:22;18.00;99.90
49829;DHT22;35723;51.194;5.112;2022-10-31T17:20:49;18.00;99.90
49829;DHT22;35723;51.194;5.112;2022-10-31T17:23:16;18.00;99.90
49829;DHT22;35723;51.194;5.112;2022-10-31T17:25:43;18.00;99.90
49829;DHT22;35723;51.194;5.112;2022-10-31T17:28:14;17.90;99.90
49829;DHT22;35723;51.194;5.112;2022-10-31T17:30:41;17.90;99.90
49829;DHT22;35723;51.194;5.112;2022-10-31T17:33:11;17.90;99.90
49829;DHT22;35723;51.194;5.112;2022-10-31T17:35:37;18.00;99.90
49829;DHT22;35723;51.194;5.112;2022-10-31T17:38:02;17.90;99.90
49829;DHT22;35723;51.194;5.112;2022-10-31T17:40:28;17.90;99.90
49829;DHT22;35723;51.194;5.112;2022-10-31T17:42:56;17.90;99.90
49829;DHT22;35723;51.194;5.112;2022-10-31T17:45:23;17.90;99.90
49829;DHT22;35723;51.194;5.112;2022-10-31T17:47:50;17.80;99.90
49829;DHT22;35723;51.194;5.112;2022-10-31T17:50:18;17.80;99.90
49829;DHT22;35723;51.194;5.112;2022-10-31T17:52:44;17.80;99.90
49829;DHT22;35723;51.194;5.112;2022-10-31T17:55:11;17.80;99.90
49829;DHT22;35723;51.194;5.112;2022-10-31T17:57:37;17.80;99.90
49829;DHT22;35723;51.194;5.112;2022-10-31T18:00:05;17.80;99.90
49829;DHT22;35723;51.194;5.112;2022-10-31T18:02:31;17.70;99.90
49829;DHT22;35723;51.194;5.112;2022-10-31T18:04:56;17.70;99.90
49829;DHT22;35723;51.194;5.112;2022-10-31T18:07:22;17.70;99.90
49829;DHT22;35723;51.194;5.112;2022-10-31T18:09:48;17.70;99.90
49829;DHT22;35723;51.194;5.112;2022-10-31T18:12:14;17.70;99.90
49829;DHT22;35723;51.194;5.112;2022-10-31T18:14:41;17.70;99.90